createdAt,value
2022-10-13T00:00:19.551Z,8.74
2022-10-13T00:02:50.383Z,8.71
2022-10-13T00:05:21.613Z,8.70
2022-10-13T00:07:52.487Z,8.69
2022-10-13T00:10:23.430Z,8.68
2022-10-13T00:12:54.761Z,8.67
2022-10-13T00:15:26.196Z,8.66
2022-10-13T00:17:57.459Z,8.68
2022-10-13T00:20:28.304Z,8.70
2022-10-13T00:22:59.137Z,8.71
2022-10-13T00:25:30.032Z,8.72
2022-10-13T00:28:00.912Z,8.72
2022-10-13T00:30:36.512Z,8.72
2022-10-13T00:33:07.789Z,8.70
2022-10-13T00:35:43.450Z,8.69
2022-10-13T00:38:16.695Z,8.68
2022-10-13T00:40:49.505Z,8.68
2022-10-13T00:43:26.017Z,8.70
2022-10-13T00:45:57.213Z,8.70
2022-10-13T00:48:30.694Z,8.70
2022-10-13T00:51:02.097Z,8.69
2022-10-13T00:53:36.445Z,8.67
2022-10-13T00:56:10.569Z,8.65
2022-10-13T00:58:42.201Z,8.63
2022-10-13T01:01:13.063Z,8.59
2022-10-13T01:03:44.013Z,8.55
2022-10-13T01:06:19.879Z,8.51
2022-10-13T01:08:55.049Z,8.47
2022-10-13T01:12:04.051Z,8.44
2022-10-13T01:14:45.272Z,8.41
2022-10-13T01:17:26.583Z,8.37
2022-10-13T01:20:33.850Z,8.31
2022-10-13T01:23:19.825Z,8.24
2022-10-13T01:26:18.353Z,8.20
2022-10-13T01:29:11.088Z,8.17
2022-10-13T01:31:50.262Z,8.16
2022-10-13T01:34:28.128Z,8.15
2022-10-13T01:37:04.795Z,8.13
2022-10-13T01:39:40.861Z,8.11
2022-10-13T01:42:17.512Z,8.08
2022-10-13T01:44:53.293Z,8.04
2022-10-13T01:47:26.599Z,7.98
2022-10-13T01:49:59.150Z,7.93
2022-10-13T01:52:36.563Z,7.88
2022-10-13T01:55:12.024Z,7.84
2022-10-13T01:57:44.479Z,7.81
2022-10-13T02:00:19.789Z,7.80
2022-10-13T02:03:01.940Z,7.79
2022-10-13T02:05:42.659Z,7.77
2022-10-13T02:08:21.144Z,7.76
2022-10-13T02:11:00.998Z,7.73
2022-10-13T02:13:33.854Z,7.70
2022-10-13T02:16:06.370Z,7.71
2022-10-13T02:18:38.322Z,7.72
2022-10-13T02:21:10.579Z,7.73
2022-10-13T02:23:43.429Z,7.75
2022-10-13T02:26:15.393Z,7.77
2022-10-13T02:28:46.400Z,7.77
2022-10-13T02:31:17.667Z,7.78
2022-10-13T02:33:48.659Z,7.77
2022-10-13T02:36:19.480Z,7.76
2022-10-13T02:38:50.508Z,7.78
2022-10-13T02:41:21.343Z,7.79
2022-10-13T02:43:52.170Z,7.81
2022-10-13T02:46:23.131Z,7.83
2022-10-13T02:48:54.069Z,7.84
2022-10-13T02:51:24.862Z,7.85
2022-10-13T02:53:55.804Z,7.86
2022-10-13T02:56:26.560Z,7.84
2022-10-13T02:58:57.403Z,7.84
2022-10-13T03:01:28.288Z,7.83
2022-10-13T03:03:59.249Z,7.83
2022-10-13T03:06:30.099Z,7.82
2022-10-13T03:09:01.122Z,7.81
2022-10-13T03:11:32.104Z,7.78
2022-10-13T03:14:02.974Z,7.75
2022-10-13T03:16:33.794Z,7.73
2022-10-13T03:19:05.056Z,7.72
2022-10-13T03:21:35.860Z,7.70
2022-10-13T03:24:07.267Z,7.70
2022-10-13T03:26:38.564Z,7.67
2022-10-13T03:29:12.803Z,7.64
2022-10-13T03:31:44.047Z,7.60
2022-10-13T03:34:16.728Z,7.56
2022-10-13T03:36:47.980Z,7.51
2022-10-13T03:39:18.837Z,7.46
2022-10-13T03:41:50.000Z,7.43
2022-10-13T03:44:21.364Z,7.40
2022-10-13T03:46:52.437Z,7.38
2022-10-13T03:49:23.374Z,7.37
2022-10-13T03:51:54.263Z,7.35
2022-10-13T03:54:25.438Z,7.33
2022-10-13T03:56:57.379Z,7.33
2022-10-13T03:59:34.171Z,7.33
2022-10-13T04:02:10.048Z,7.31
2022-10-13T04:04:44.960Z,7.30
2022-10-13T04:07:16.871Z,7.30
2022-10-13T04:09:48.735Z,7.31
2022-10-13T04:12:21.154Z,7.30
2022-10-13T04:14:52.917Z,7.29
2022-10-13T04:17:23.761Z,7.26
2022-10-13T04:19:54.963Z,7.23
2022-10-13T04:22:26.197Z,7.20
2022-10-13T04:24:57.094Z,7.16
2022-10-13T04:27:28.550Z,7.11
2022-10-13T04:30:01.478Z,7.07
2022-10-13T04:32:32.933Z,7.06
2022-10-13T04:35:07.924Z,7.05
2022-10-13T04:37:44.142Z,7.05
2022-10-13T04:40:16.758Z,7.03
2022-10-13T04:42:47.717Z,7.02
2022-10-13T04:45:19.210Z,7.00
2022-10-13T04:47:55.497Z,6.98
2022-10-13T04:50:29.753Z,6.95
2022-10-13T04:53:14.247Z,6.94
2022-10-13T04:55:49.418Z,6.96
2022-10-13T04:58:21.445Z,6.98
2022-10-13T05:00:52.749Z,7.00
2022-10-13T05:03:25.249Z,7.03
2022-10-13T05:05:56.302Z,7.06
2022-10-13T05:08:28.120Z,7.07
2022-10-13T05:11:04.821Z,7.12
2022-10-13T05:13:39.699Z,7.15
2022-10-13T05:16:19.414Z,7.19
2022-10-13T05:18:59.204Z,7.22
2022-10-13T05:21:31.017Z,7.25
2022-10-13T05:24:02.721Z,7.28
2022-10-13T05:26:37.694Z,7.30
2022-10-13T05:53:01.933Z,9.71
2022-10-13T05:55:33.387Z,10.81
2022-10-13T05:58:08.443Z,11.31
2022-10-13T06:00:38.016Z,11.80
2022-10-13T06:03:12.310Z,12.25
2022-10-13T06:05:47.852Z,12.71
2022-10-13T06:08:19.633Z,13.19
2022-10-13T06:10:51.618Z,13.66
2022-10-13T06:13:24.449Z,14.21
2022-10-13T06:15:55.403Z,14.85
2022-10-13T06:18:26.424Z,15.55
2022-10-13T06:20:57.380Z,16.27
2022-10-13T06:23:28.391Z,16.95
2022-10-13T06:25:59.300Z,17.55
2022-10-13T06:28:30.438Z,18.12
2022-10-13T06:31:01.473Z,18.65
2022-10-13T06:33:32.588Z,19.17
2022-10-13T06:36:06.097Z,19.72
2022-10-13T06:38:36.990Z,20.28
2022-10-13T06:41:08.924Z,20.87
2022-10-13T06:43:40.814Z,21.46
2022-10-13T06:46:14.937Z,21.98
2022-10-13T06:48:46.216Z,22.52
2022-10-13T06:51:17.276Z,23.01
2022-10-13T06:53:51.271Z,23.45
2022-10-13T06:56:25.999Z,23.78
2022-10-13T06:58:57.215Z,24.14
2022-10-13T07:01:28.511Z,24.31
2022-10-13T07:03:59.632Z,24.43
2022-10-13T07:06:30.591Z,24.60
2022-10-13T07:09:06.796Z,24.72
2022-10-13T07:11:39.056Z,24.76
2022-10-13T07:14:09.981Z,24.88
2022-10-13T07:16:41.042Z,25.01
2022-10-13T07:19:11.957Z,25.05
2022-10-13T07:21:44.604Z,25.07
2022-10-13T07:24:15.741Z,25.08
2022-10-13T07:26:47.301Z,25.30
2022-10-13T07:29:18.874Z,25.50
2022-10-13T07:31:49.849Z,25.67
2022-10-13T07:34:20.735Z,25.91
2022-10-13T07:36:52.009Z,26.15
2022-10-13T07:39:22.957Z,26.36
2022-10-13T07:41:53.981Z,26.52
2022-10-13T07:44:25.040Z,26.70
2022-10-13T07:46:56.429Z,26.93
2022-10-13T07:49:27.625Z,27.21
2022-10-13T07:51:58.899Z,27.62
2022-10-13T07:54:30.200Z,27.95
2022-10-13T07:57:01.776Z,28.31
2022-10-13T07:59:34.686Z,28.60
2022-10-13T08:02:05.620Z,28.69
2022-10-13T08:04:37.667Z,28.74
2022-10-13T08:07:09.481Z,28.81
2022-10-13T08:09:40.963Z,28.84
2022-10-13T08:12:12.297Z,28.79
2022-10-13T08:14:43.440Z,28.83
2022-10-13T08:17:14.915Z,28.95
2022-10-13T08:19:45.988Z,29.08
2022-10-13T08:22:17.215Z,29.24
2022-10-13T08:24:48.183Z,29.45
2022-10-13T08:27:26.678Z,29.73
2022-10-13T08:30:10.565Z,30.03
2022-10-13T08:32:44.866Z,30.23
2022-10-13T08:35:14.708Z,30.61
2022-10-13T08:37:45.873Z,30.84
2022-10-13T08:40:21.459Z,31.00
2022-10-13T08:42:59.420Z,30.95
2022-10-13T08:45:41.288Z,31.00
2022-10-13T08:48:18.471Z,30.86
2022-10-13T08:50:52.212Z,30.86
2022-10-13T08:53:28.562Z,30.73
2022-10-13T08:56:04.518Z,30.67
2022-10-13T08:58:38.906Z,30.73
2022-10-13T09:01:17.400Z,30.83
2022-10-13T09:03:56.203Z,30.58
2022-10-13T09:06:33.840Z,30.13
2022-10-13T09:09:18.099Z,29.44
2022-10-13T09:11:51.124Z,28.60
2022-10-13T09:14:31.260Z,27.97
2022-10-13T09:17:17.563Z,27.28
2022-10-13T09:20:01.222Z,26.81
2022-10-13T09:22:34.027Z,26.50
2022-10-13T09:25:21.198Z,26.22
2022-10-13T09:27:57.392Z,25.79
2022-10-13T09:30:34.036Z,25.28
2022-10-13T09:33:22.407Z,24.76
2022-10-13T09:36:12.241Z,24.21
2022-10-13T09:38:45.116Z,23.75
2022-10-13T09:41:21.420Z,23.32
2022-10-13T09:44:13.756Z,22.83
2022-10-13T09:46:52.684Z,22.39
2022-10-13T09:49:36.020Z,22.06
2022-10-13T09:52:17.524Z,21.63
2022-10-13T09:54:51.677Z,21.44
2022-10-13T09:57:32.552Z,21.19
2022-10-13T10:00:13.220Z,20.86
2022-10-13T10:02:53.336Z,20.47
2022-10-13T10:05:29.993Z,20.16
2022-10-13T10:08:08.140Z,19.96
2022-10-13T10:10:42.522Z,19.68
2022-10-13T10:13:15.207Z,19.30
2022-10-13T10:15:54.052Z,18.94
2022-10-13T10:18:33.419Z,18.80
2022-10-13T10:21:10.925Z,18.59
2022-10-13T10:23:48.588Z,18.39
2022-10-13T10:26:30.174Z,18.21
2022-10-13T10:29:18.036Z,18.03
2022-10-13T10:32:13.308Z,17.81
2022-10-13T10:34:52.527Z,17.64
2022-10-13T10:37:38.839Z,17.49
2022-10-13T10:40:25.624Z,17.34
2022-10-13T10:43:16.751Z,17.29
2022-10-13T10:45:50.085Z,17.30
2022-10-13T10:48:25.628Z,17.33
2022-10-13T10:50:58.071Z,17.31
2022-10-13T10:53:39.679Z,17.26
2022-10-13T10:56:18.062Z,17.20
2022-10-13T10:58:56.050Z,17.12
2022-10-13T11:01:39.015Z,17.06
2022-10-13T11:04:40.474Z,17.00
2022-10-13T11:07:36.453Z,16.85
2022-10-13T11:10:26.403Z,16.75
2022-10-13T11:13:28.824Z,16.71
2022-10-13T11:16:19.910Z,16.67
2022-10-13T11:19:06.054Z,16.61
2022-10-13T11:22:22.442Z,16.52
2022-10-13T11:24:55.973Z,16.39
2022-10-13T11:27:41.145Z,16.25
2022-10-13T11:30:27.244Z,16.17
2022-10-13T11:32:58.512Z,16.10
2022-10-13T11:35:31.593Z,16.08
2022-10-13T11:38:18.074Z,16.06
2022-10-13T11:41:12.764Z,16.03
2022-10-13T11:43:54.526Z,16.02
2022-10-13T11:46:35.655Z,16.01
2022-10-13T11:49:37.160Z,15.96
2022-10-13T11:52:33.514Z,15.94
2022-10-13T11:55:12.888Z,15.87
2022-10-13T11:57:44.862Z,15.84
2022-10-13T12:00:20.204Z,15.83
2022-10-13T12:02:54.068Z,15.76
2022-10-13T12:05:27.511Z,15.73
2022-10-13T12:08:04.699Z,15.70
2022-10-13T12:10:38.281Z,15.69
2022-10-13T12:13:21.008Z,15.68
2022-10-13T12:15:59.962Z,15.68
2022-10-13T12:18:34.206Z,15.69
2022-10-13T12:21:12.371Z,15.70
2022-10-13T12:23:44.633Z,15.74
2022-10-13T12:26:19.493Z,15.76
2022-10-13T12:28:56.801Z,15.74
2022-10-13T12:31:30.938Z,15.70
2022-10-13T12:34:03.574Z,15.64
2022-10-13T12:36:36.444Z,15.56
2022-10-13T12:39:13.916Z,15.49
2022-10-13T12:41:47.367Z,15.45
2022-10-13T12:44:21.981Z,15.47
2022-10-13T12:46:55.763Z,15.41
2022-10-13T12:49:28.022Z,15.33
2022-10-13T12:52:06.911Z,15.30
2022-10-13T12:54:39.680Z,15.27
2022-10-13T12:57:23.631Z,15.24
2022-10-13T12:59:54.583Z,15.23
2022-10-13T13:02:29.471Z,15.21
2022-10-13T13:05:00.658Z,15.16
2022-10-13T13:07:37.451Z,15.13
2022-10-13T13:10:19.812Z,15.13
2022-10-13T13:12:51.951Z,15.11
2022-10-13T13:15:37.009Z,15.10
2022-10-13T13:18:39.871Z,15.13
2022-10-13T13:21:13.762Z,15.12
2022-10-13T13:23:51.170Z,15.13
2022-10-13T13:26:25.753Z,15.11
2022-10-13T13:28:57.825Z,15.10
2022-10-13T13:31:29.117Z,15.11
2022-10-13T13:34:00.110Z,15.13
2022-10-13T13:36:32.711Z,15.14
2022-10-13T13:39:03.891Z,15.12
2022-10-13T13:41:34.788Z,15.08
2022-10-13T13:44:05.917Z,15.07
2022-10-13T13:46:36.779Z,15.04
2022-10-13T13:49:07.799Z,15.01
2022-10-13T13:51:38.807Z,14.98
2022-10-13T13:54:09.808Z,14.97
2022-10-13T13:56:40.964Z,14.95
2022-10-13T13:59:11.806Z,14.95
2022-10-13T14:01:42.694Z,14.94
2022-10-13T14:04:13.754Z,14.94
2022-10-13T14:06:44.746Z,14.93
2022-10-13T14:09:15.625Z,14.91
2022-10-13T14:11:46.693Z,14.88
2022-10-13T14:14:17.615Z,14.87
2022-10-13T14:16:48.653Z,14.86
2022-10-13T14:19:19.512Z,14.84
2022-10-13T14:21:50.343Z,14.83
2022-10-13T14:24:22.607Z,14.84
2022-10-13T14:26:53.584Z,14.82
2022-10-13T14:29:24.882Z,14.81
2022-10-13T14:31:56.444Z,14.79
2022-10-13T14:34:27.694Z,14.75
2022-10-13T14:36:58.691Z,14.73
2022-10-13T14:39:29.851Z,14.72
2022-10-13T14:42:00.761Z,14.70
2022-10-13T14:44:31.911Z,14.67
2022-10-13T14:47:03.072Z,14.64
2022-10-13T14:49:34.086Z,14.62
2022-10-13T14:52:05.345Z,14.58
2022-10-13T14:54:40.008Z,14.57
2022-10-13T14:57:16.088Z,14.54
2022-10-13T14:59:48.773Z,14.51
2022-10-13T15:02:19.923Z,14.49
2022-10-13T15:04:57.965Z,14.47
2022-10-13T15:07:29.764Z,14.44
2022-10-13T15:10:05.446Z,14.40
2022-10-13T15:12:37.405Z,14.36
2022-10-13T15:15:10.735Z,14.33
2022-10-13T15:17:42.053Z,14.28
2022-10-13T15:20:14.606Z,14.22
2022-10-13T15:22:46.287Z,14.17
2022-10-13T15:25:19.479Z,14.13
2022-10-13T15:27:50.825Z,14.09
2022-10-13T15:30:22.091Z,14.04
2022-10-13T15:32:53.671Z,14.00
2022-10-13T15:35:25.076Z,13.96
2022-10-13T15:37:56.035Z,13.90
2022-10-13T15:40:27.567Z,13.85
2022-10-13T15:42:58.548Z,13.80
2022-10-13T15:45:29.608Z,13.76
2022-10-13T15:48:00.696Z,13.72
2022-10-13T15:50:31.840Z,13.68
2022-10-13T15:53:02.990Z,13.64
2022-10-13T15:55:34.727Z,13.59
2022-10-13T15:58:10.033Z,13.54
2022-10-13T16:00:45.469Z,13.50
2022-10-13T16:03:19.115Z,13.45
2022-10-13T16:05:50.207Z,13.41
2022-10-13T16:08:21.573Z,13.39
2022-10-13T16:10:52.864Z,13.35
2022-10-13T16:13:24.088Z,13.32
2022-10-13T16:16:01.763Z,13.28
2022-10-13T16:18:34.271Z,13.24
2022-10-13T16:21:15.799Z,13.21
2022-10-13T16:23:49.684Z,13.19
2022-10-13T16:26:20.967Z,13.16
2022-10-13T16:28:55.073Z,13.14
2022-10-13T16:31:26.589Z,13.11
2022-10-13T16:33:57.787Z,13.08
2022-10-13T16:36:29.214Z,13.06
2022-10-13T16:39:00.325Z,13.03
2022-10-13T16:41:32.055Z,13.02
2022-10-13T16:44:22.683Z,13.00
2022-10-13T16:47:05.126Z,12.97
2022-10-13T16:49:37.263Z,12.93
2022-10-13T16:52:31.870Z,12.88
2022-10-13T16:55:03.325Z,12.86
2022-10-13T16:57:35.581Z,12.82
2022-10-13T17:00:08.328Z,12.79
2022-10-13T17:02:39.521Z,12.74
2022-10-13T17:05:10.857Z,12.72
2022-10-13T17:07:42.076Z,12.69
2022-10-13T17:10:14.063Z,12.68
2022-10-13T17:12:45.316Z,12.65
2022-10-13T17:15:16.375Z,12.63
2022-10-13T17:17:47.926Z,12.61
2022-10-13T17:20:19.315Z,12.60
2022-10-13T17:22:51.793Z,12.58
2022-10-13T17:25:23.777Z,12.56
2022-10-13T17:27:55.070Z,12.55
2022-10-13T17:30:26.709Z,12.53
2022-10-13T17:33:02.071Z,12.51
2022-10-13T17:35:35.671Z,12.49
2022-10-13T17:38:06.883Z,12.48
2022-10-13T17:40:38.873Z,12.46
2022-10-13T17:43:10.147Z,12.45
2022-10-13T17:45:41.739Z,12.43
2022-10-13T17:48:14.646Z,12.43
2022-10-13T17:50:46.677Z,12.41
2022-10-13T17:53:18.629Z,12.40
2022-10-13T17:55:51.034Z,12.39
2022-10-13T17:58:23.818Z,12.38
2022-10-13T18:01:12.410Z,12.37
2022-10-13T18:03:48.659Z,12.32
2022-10-13T18:06:22.383Z,12.30
2022-10-13T18:08:54.977Z,12.27
2022-10-13T18:11:26.896Z,12.26
2022-10-13T18:13:59.942Z,12.25
2022-10-13T18:16:31.301Z,12.23
2022-10-13T18:19:02.912Z,12.21
2022-10-13T18:21:34.142Z,12.18
2022-10-13T18:24:05.451Z,12.15
2022-10-13T18:26:36.924Z,12.13
2022-10-13T18:29:09.929Z,12.10
2022-10-13T18:31:43.082Z,12.08
2022-10-13T18:34:17.261Z,12.04
2022-10-13T18:36:50.654Z,12.02
2022-10-13T18:39:25.179Z,11.99
2022-10-13T18:41:58.026Z,11.96
2022-10-13T18:44:38.334Z,11.92
2022-10-13T18:47:09.621Z,11.89
2022-10-13T18:49:41.046Z,11.86
2022-10-13T18:52:12.615Z,11.83
2022-10-13T18:54:45.573Z,11.78
2022-10-13T18:57:16.924Z,11.76
2022-10-13T18:59:48.220Z,11.73
2022-10-13T19:02:19.417Z,11.70
2022-10-13T19:04:50.812Z,11.66
2022-10-13T19:07:23.935Z,11.62
2022-10-13T19:09:56.018Z,11.59
2022-10-13T19:12:27.103Z,11.56
2022-10-13T19:14:58.935Z,11.55
2022-10-13T19:17:30.331Z,11.53
2022-10-13T19:20:01.355Z,11.51
2022-10-13T19:22:32.624Z,11.48
2022-10-13T19:25:03.973Z,11.47
2022-10-13T19:27:35.222Z,11.43
2022-10-13T19:30:07.520Z,11.40
2022-10-13T19:32:41.116Z,11.36
2022-10-13T19:35:12.944Z,11.33
2022-10-13T19:37:44.232Z,11.29
2022-10-13T19:40:16.169Z,11.26
2022-10-13T19:42:49.474Z,11.22
2022-10-13T19:45:22.645Z,11.18
2022-10-13T19:47:53.871Z,11.14
2022-10-13T19:50:25.038Z,11.10
2022-10-13T19:52:56.892Z,11.06
2022-10-13T19:55:28.438Z,11.03
2022-10-13T19:57:59.694Z,10.98
2022-10-13T20:00:31.051Z,10.95
2022-10-13T20:03:03.310Z,10.92
2022-10-13T20:05:35.594Z,10.90
2022-10-13T20:08:07.205Z,10.87
2022-10-13T20:10:40.881Z,10.84
2022-10-13T20:13:12.880Z,10.80
2022-10-13T20:15:45.878Z,10.77
2022-10-13T20:18:18.098Z,10.73
2022-10-13T20:20:49.537Z,10.70
2022-10-13T20:23:20.634Z,10.67
2022-10-13T20:25:51.637Z,10.64
2022-10-13T20:28:22.988Z,10.62
2022-10-13T20:30:54.639Z,10.60
2022-10-13T20:33:26.266Z,10.56
2022-10-13T20:36:01.300Z,10.52
2022-10-13T20:38:35.630Z,10.49
2022-10-13T20:41:15.464Z,10.48
2022-10-13T20:43:47.423Z,10.48
2022-10-13T20:46:20.615Z,10.50
2022-10-13T20:51:44.667Z,10.52
2022-10-13T20:54:17.386Z,10.52
2022-10-13T20:56:48.741Z,10.52
2022-10-13T20:59:19.866Z,10.52
2022-10-13T21:01:51.017Z,10.51
2022-10-13T21:04:22.397Z,10.50
2022-10-13T21:06:54.914Z,10.49
2022-10-13T21:09:26.161Z,10.46
2022-10-13T21:11:57.686Z,10.43
2022-10-13T21:14:30.962Z,10.41
2022-10-13T21:17:02.360Z,10.38
2022-10-13T21:19:33.805Z,10.36
2022-10-13T21:22:05.246Z,10.31
2022-10-13T21:24:36.696Z,10.27
2022-10-13T21:27:08.151Z,10.24
2022-10-13T21:29:39.201Z,10.19
2022-10-13T21:32:10.965Z,10.16
2022-10-13T21:34:44.304Z,10.13
2022-10-13T21:37:15.507Z,10.12
2022-10-13T21:39:49.043Z,10.10
2022-10-13T21:42:23.663Z,10.08
2022-10-13T21:44:58.354Z,10.06
2022-10-13T21:47:32.123Z,10.04
2022-10-13T21:50:04.907Z,10.00
2022-10-13T21:52:39.709Z,9.98
2022-10-13T21:55:12.193Z,9.95
2022-10-13T21:58:05.420Z,9.91
2022-10-13T22:00:57.873Z,9.87
2022-10-13T22:03:48.079Z,9.83
2022-10-13T22:06:22.275Z,9.77
2022-10-13T22:08:55.600Z,9.72
2022-10-13T22:11:35.280Z,9.69
2022-10-13T22:14:11.453Z,9.67
2022-10-13T22:16:44.498Z,9.65
2022-10-13T22:19:17.444Z,9.64
2022-10-13T22:21:50.470Z,9.60
2022-10-13T22:24:22.881Z,9.58
2022-10-13T22:26:54.024Z,9.57
2022-10-13T22:29:27.008Z,9.55
2022-10-13T22:32:00.553Z,9.53
2022-10-13T22:34:31.513Z,9.51
2022-10-13T22:37:02.653Z,9.50
2022-10-13T22:39:35.857Z,9.47
2022-10-13T22:42:12.571Z,9.45
2022-10-13T22:44:43.557Z,9.44
2022-10-13T22:47:14.499Z,9.42
2022-10-13T22:49:45.522Z,9.38
2022-10-13T22:52:21.000Z,9.34
2022-10-13T22:54:52.047Z,9.31
2022-10-13T22:57:23.770Z,9.28
2022-10-13T22:59:59.741Z,9.23
2022-10-13T23:02:30.668Z,9.20
2022-10-13T23:05:01.644Z,9.17
2022-10-13T23:07:32.873Z,9.15
2022-10-13T23:10:03.824Z,9.12
2022-10-13T23:12:34.801Z,9.10
2022-10-13T23:15:06.725Z,9.07
2022-10-13T23:17:37.759Z,9.03
2022-10-13T23:20:11.791Z,9.00
2022-10-13T23:22:45.663Z,8.97
2022-10-13T23:25:16.830Z,8.95
2022-10-13T23:28:22.136Z,8.93
2022-10-13T23:30:53.298Z,8.91
2022-10-13T23:33:24.699Z,8.87
2022-10-13T23:36:00.372Z,8.86
2022-10-13T23:38:32.790Z,8.84
2022-10-13T23:41:11.740Z,8.83
2022-10-13T23:43:44.319Z,8.80
2022-10-13T23:46:19.203Z,8.77
2022-10-13T23:55:49.372Z,8.71
2022-10-13T23:58:20.319Z,8.72
